Time;durP1;ratioP1;P1;durP2;ratioP2;P2;SDS_P1;SDS_P2;PMS_P1;PMS_P2;Temp;Humidity;BMP_temperature;BMP_pressure;BME280_temperature;BME280_humidity;BME280_pressure;Samples;Min_cycle;Max_cycle;Signal;HPM_P1;HPM_P2
2022/03/01 00:00:32;;;;;;;26.63;14.88;;;;;;;-3.98;100.00;91269.44;4991964;28;20038;-70
2022/03/01 00:02:58;;;;;;;22.02;12.88;;;;;;;-3.99;100.00;91280.81;4993314;28;20552;-69
2022/03/01 00:05:23;;;;;;;28.80;15.38;;;;;;;-3.98;100.00;91270.22;4993251;28;20034;-70
2022/03/01 00:07:49;;;;;;;31.02;17.65;;;;;;;-3.90;100.00;91268.38;4993188;28;20037;-69
2022/03/01 00:10:14;;;;;;;26.55;14.45;;;;;;;-3.92;100.00;91263.41;4993056;28;20508;-69
2022/03/01 00:12:40;;;;;;;29.27;14.05;;;;;;;-3.90;100.00;91270.97;4993070;28;20473;-69
2022/03/01 00:15:06;;;;;;;21.95;12.80;;;;;;;-3.88;100.00;91261.16;4993123;28;20479;-70
2022/03/01 00:17:31;;;;;;;26.92;13.50;;;;;;;-3.95;100.00;91254.19;4992960;28;20035;-70
2022/03/01 00:19:57;;;;;;;23.30;13.52;;;;;;;-3.98;100.00;91240.84;4992808;28;20316;-69
2022/03/01 00:22:22;;;;;;;17.40;11.02;;;;;;;-4.06;100.00;91247.13;4992925;28;20031;-70
2022/03/01 00:24:48;;;;;;;17.90;10.05;;;;;;;-4.02;100.00;91245.69;4992874;28;20416;-69
2022/03/01 00:27:13;;;;;;;15.35;9.48;;;;;;;-4.02;100.00;91240.47;4991552;28;20034;-70
2022/03/01 00:29:39;;;;;;;17.95;10.25;;;;;;;-4.00;100.00;91246.25;5004511;28;20034;-69
2022/03/01 00:32:05;;;;;;;19.80;10.38;;;;;;;-3.99;100.00;91242.66;5012169;28;20070;-70
2022/03/01 00:34:30;;;;;;;19.75;11.02;;;;;;;-3.92;100.00;91255.59;5012263;28;20044;-70
2022/03/01 00:36:56;;;;;;;19.20;11.52;;;;;;;-3.95;100.00;91250.81;5012176;28;20029;-70
2022/03/01 00:39:21;;;;;;;37.95;17.80;;;;;;;-3.91;100.00;91254.59;5012113;28;20038;-69
2022/03/01 00:41:47;;;;;;;34.03;19.13;;;;;;;-3.92;100.00;91251.19;5012104;28;20034;-70
2022/03/01 00:44:13;;;;;;;40.95;20.13;;;;;;;-3.86;100.00;91235.75;5012094;28;20492;-69
2022/03/01 00:46:38;;;;;;;43.60;21.60;;;;;;;-3.90;100.00;91242.38;5012086;28;20034;-70
2022/03/01 00:49:05;;;;;;;44.63;23.17;;;;;;;-3.96;100.00;91250.00;5012121;28;20711;-69
2022/03/01 00:51:30;;;;;;;40.90;22.25;;;;;;;-4.12;100.00;91247.97;5011846;28;20544;-70
2022/03/01 00:53:56;;;;;;;36.10;17.85;;;;;;;-4.02;100.00;91245.69;5011889;28;20128;-70
2022/03/01 00:56:21;;;;;;;24.15;14.00;;;;;;;-4.04;100.00;91229.50;5010671;28;20033;-70
2022/03/01 00:58:47;;;;;;;16.42;10.77;;;;;;;-4.02;100.00;91240.47;5011830;28;20420;-70
2022/03/01 01:01:13;;;;;;;24.60;13.77;;;;;;;-4.03;100.00;91235.50;5011698;28;20038;-70
2022/03/01 01:03:38;;;;;;;22.15;11.70;;;;;;;-3.97;100.00;91226.84;5011785;28;20044;-69
2022/03/01 01:06:04;;;;;;;17.63;10.23;;;;;;;-4.05;100.00;91227.94;5011723;28;20046;-69
2022/03/01 01:08:29;;;;;;;18.38;11.68;;;;;;;-4.12;100.00;91227.16;5011741;28;20118;-69
2022/03/01 01:10:55;;;;;;;19.05;10.77;;;;;;;-4.12;100.00;91227.16;5011594;28;20045;-69
2022/03/01 01:13:20;;;;;;;19.63;10.90;;;;;;;-4.04;100.00;91221.72;5011654;28;20129;-69
2022/03/01 01:15:46;;;;;;;16.02;9.00;;;;;;;-4.00;100.00;91225.47;5011684;28;20041;-69
2022/03/01 01:18:12;;;;;;;12.57;8.20;;;;;;;-4.13;100.00;91223.00;5011537;28;20209;-69
2022/03/01 01:20:38;;;;;;;11.98;8.13;;;;;;;-4.11;100.00;91225.38;5011493;28;20088;-69
2022/03/01 01:23:04;;;;;;;17.25;9.70;;;;;;;-4.11;100.00;91222.78;5011568;28;20060;-69
2022/03/01 01:25:29;;;;;;;18.77;9.63;;;;;;;-4.13;100.00;91220.38;5011537;28;20452;-69
2022/03/01 01:27:57;;;;;;;18.15;10.75;;;;;;;-4.07;100.00;91219.56;5011499;28;20117;-69
2022/03/01 01:30:25;;;;;;;17.42;10.98;;;;;;;-4.10;100.00;91221.75;5011324;28;20045;-69
2022/03/01 01:32:52;;;;;;;18.88;11.02;;;;;;;-4.17;100.00;91210.66;5010079;28;20120;-69
2022/03/01 01:35:20;;;;;;;24.83;12.27;;;;;;;-4.23;100.00;91218.28;5011394;28;20052;-69
2022/03/01 01:37:47;;;;;;;24.15;12.63;;;;;;;-4.20;100.00;91204.09;5011276;28;20092;-69
2022/03/01 01:40:16;;;;;;;19.30;11.45;;;;;;;-4.21;100.00;91212.88;5011273;28;20092;-70
2022/03/01 01:42:42;;;;;;;18.52;11.45;;;;;;;-4.27;100.00;91211.91;5010737;28;20049;-70
2022/03/01 01:45:09;;;;;;;20.73;11.32;;;;;;;-4.28;100.00;91220.72;5011240;28;20550;-70
2022/03/01 01:47:35;;;;;;;17.23;10.00;;;;;;;-4.26;100.00;91207.50;5011281;28;20496;-70
2022/03/01 01:50:01;;;;;;;16.70;9.55;;;;;;;-4.26;100.00;91207.50;5011136;28;20091;-69
2022/03/01 01:52:26;;;;;;;26.75;14.35;;;;;;;-4.29;100.00;91203.53;5010990;28;20050;-69
2022/03/01 01:54:53;;;;;;;18.25;11.18;;;;;;;-4.32;100.00;91203.97;5011198;28;20038;-70
2022/03/01 01:57:21;;;;;;;20.85;12.02;;;;;;;-4.25;100.00;91211.72;5011128;28;20049;-69
2022/03/01 01:59:48;;;;;;;23.85;12.75;;;;;;;-4.22;100.00;91203.50;5011079;28;20050;-69
2022/03/01 02:02:16;;;;;;;19.85;11.88;;;;;;;-4.21;100.00;91184.31;5011180;28;20041;-69
2022/03/01 02:04:41;;;;;;;21.55;12.35;;;;;;;-4.23;100.00;91175.94;5010754;28;20133;-69
2022/03/01 02:07:08;;;;;;;23.30;12.93;;;;;;;-4.21;100.00;91168.72;5011107;28;20124;-70
2022/03/01 02:09:33;;;;;;;22.52;11.80;;;;;;;-4.18;100.00;91162.31;5010936;28;20033;-69
2022/03/01 02:11:59;;;;;;;20.23;11.15;;;;;;;-4.07;100.00;91159.81;5009747;28;20038;-69
2022/03/01 02:14:25;;;;;;;20.67;11.00;;;;;;;-4.03;100.00;91154.97;5011032;28;20417;-69
2022/03/01 02:16:50;;;;;;;15.98;9.52;;;;;;;-3.89;100.00;91163.41;5010922;28;20109;-70
2022/03/01 02:19:16;;;;;;;11.13;7.22;;;;;;;-3.67;100.00;91185.34;5010913;28;20412;-69
2022/03/01 02:21:54;;;;;;;12.50;7.40;;;;;;;-3.73;100.00;91181.81;5010959;28;20038;-69
2022/03/01 02:24:21;;;;;;;9.35;6.03;;;;;;;-3.69;100.00;91182.19;5010891;28;20045;-69
2022/03/01 02:26:47;;;;;;;9.60;6.20;;;;;;;-3.76;100.00;91181.47;5010910;28;20409;-70
2022/03/01 02:29:13;;;;;;;7.72;5.63;;;;;;;-3.82;100.00;91187.50;5010816;28;20049;-69
2022/03/01 02:31:38;;;;;;;8.80;6.45;;;;;;;-3.89;100.00;91185.00;5010882;28;20084;-70
2022/03/01 02:34:04;;;;;;;12.10;7.43;;;;;;;-3.82;100.00;91174.53;5010801;28;20041;-69
2022/03/01 02:36:30;;;;;;;13.48;8.15;;;;;;;-3.77;100.00;91182.47;5009532;28;20570;-70
2022/03/01 02:38:57;;;;;;;16.63;9.90;;;;;;;-3.83;100.00;91178.94;5010690;28;20168;-70
2022/03/01 02:41:24;;;;;;;27.45;14.18;;;;;;;-3.85;100.00;91174.97;5010623;28;20038;-70
2022/03/01 02:43:50;;;;;;;19.10;10.45;;;;;;;-3.85;100.00;91164.56;5010742;28;20038;-69
2022/03/01 02:46:15;;;;;;;13.57;8.30;;;;;;;-3.78;100.00;91160.09;5010676;28;20042;-69
2022/03/01 02:48:42;;;;;;;15.00;8.13;;;;;;;-3.69;100.00;91162.19;5008702;28;20036;-69
2022/03/01 02:51:07;;;;;;;18.02;9.57;;;;;;;-3.82;100.00;91164.91;5009708;28;20038;-69
2022/03/01 02:53:34;;;;;;;16.45;9.50;;;;;;;-3.87;100.00;91161.38;5010481;28;20046;-69
2022/03/01 02:56:00;;;;;;;21.85;11.40;;;;;;;-3.87;100.00;91164.00;5012801;28;20034;-70
2022/03/01 02:58:25;;;;;;;23.38;12.60;;;;;;;-3.89;100.00;91176.41;5014033;28;20423;-69
2022/03/01 03:00:51;;;;;;;18.65;11.13;;;;;;;-3.92;100.00;91173.25;5014033;28;20419;-69
2022/03/01 03:03:16;;;;;;;15.85;10.10;;;;;;;-4.00;100.00;91162.31;5014041;28;20066;-69
2022/03/01 03:05:42;;;;;;;11.73;7.60;;;;;;;-4.17;100.00;91166.50;5013985;28;20034;-70
2022/03/01 03:08:07;;;;;;;15.88;10.13;;;;;;;-4.33;100.00;91171.22;5013931;28;20084;-69
2022/03/01 03:10:33;;;;;;;13.65;8.73;;;;;;;-4.52;100.00;91177.41;5013721;28;20042;-69
2022/03/01 03:13:03;;;;;;;12.98;7.65;;;;;;;-4.48;100.00;91181.16;5013814;28;20048;-69
2022/03/01 03:15:28;;;;;;;11.65;6.97;;;;;;;-4.69;100.00;91182.31;5013788;28;20522;-69
2022/03/01 03:17:55;;;;;;;11.05;7.00;;;;;;;-4.59;100.00;91185.22;5013677;28;20034;-69
2022/03/01 03:20:22;;;;;;;18.55;12.10;;;;;;;-4.53;100.00;91175.81;5013861;28;20044;-69
2022/03/01 03:22:48;;;;;;;18.15;12.13;;;;;;;-4.61;100.00;91187.22;5013638;28;20046;-69
2022/03/01 03:25:13;;;;;;;35.97;25.48;;;;;;;-4.75;100.00;91180.56;5013682;28;20566;-69
2022/03/01 03:27:39;;;;;;;33.60;24.83;;;;;;;-4.73;100.00;91178.56;5013582;28;20030;-69
2022/03/01 03:30:06;;;;;;;27.33;20.20;;;;;;;-4.77;100.00;91171.38;5171551;22;20050;-69
2022/03/01 03:32:32;;;;;;;14.93;11.10;;;;;;;-4.82;100.00;91172.03;5012516;28;20046;-69
2022/03/01 03:34:59;;;;;;;14.02;9.02;;;;;;;-4.86;100.00;91176.06;4995791;28;20083;-69
2022/03/01 03:37:24;;;;;;;11.63;7.80;;;;;;;-4.84;100.00;91174.84;5013351;28;20026;-69
2022/03/01 03:39:50;;;;;;;14.77;8.00;;;;;;;-4.86;100.00;91163.09;5013174;28;20040;-69
2022/03/01 03:42:15;;;;;;;15.02;8.85;;;;;;;-4.79;100.00;91176.00;5013278;28;20032;-69
2022/03/01 03:44:41;;;;;;;16.98;9.05;;;;;;;-4.88;100.00;91167.69;5013218;28;20034;-69
2022/03/01 03:47:07;;;;;;;28.00;13.15;;;;;;;-4.96;100.00;91160.94;5013233;28;20026;-69
2022/03/01 03:49:33;;;;;;;15.27;7.88;;;;;;;-5.03;100.00;91165.41;5013106;28;20109;-68
2022/03/01 03:51:59;;;;;;;14.98;9.68;;;;;;;-4.90;100.00;91164.50;5013129;28;20112;-69
2022/03/01 03:54:25;;;;;;;20.98;11.35;;;;;;;-5.01;100.00;91149.63;5013101;28;20034;-68
2022/03/01 03:56:51;;;;;;;13.05;8.25;;;;;;;-4.83;100.00;91154.88;5013026;28;20030;-69
2022/03/01 03:59:17;;;;;;;14.75;9.07;;;;;;;-4.86;100.00;91165.69;5012942;28;20034;-69
2022/03/01 04:01:43;;;;;;;15.65;9.32;;;;;;;-5.11;100.00;91157.84;5012764;28;20076;-69
2022/03/01 04:04:09;;;;;;;16.83;9.75;;;;;;;-5.02;100.00;91161.00;5012887;28;20040;-69
2022/03/01 04:06:36;;;;;;;11.63;7.63;;;;;;;-4.98;100.00;91152.59;5012369;28;20036;-69
2022/03/01 04:09:02;;;;;;;12.43;7.80;;;;;;;-4.95;100.00;91152.16;5012758;28;20061;-69
2022/03/01 04:11:28;;;;;;;22.52;13.60;;;;;;;-4.92;100.00;91161.31;5012626;28;20041;-69
2022/03/01 04:13:54;;;;;;;17.63;10.52;;;;;;;-5.16;100.00;91155.91;5012613;28;20026;-69
2022/03/01 04:16:19;;;;;;;13.07;8.27;;;;;;;-5.40;100.00;91167.00;4995002;28;20533;-69
2022/03/01 04:18:45;;;;;;;11.13;7.25;;;;;;;-5.56;100.00;91177.84;5012603;28;20030;-69
2022/03/01 04:21:10;;;;;;;13.25;7.47;;;;;;;-5.65;100.00;91166.94;5012489;28;20022;-69
2022/03/01 04:23:37;;;;;;;11.85;7.07;;;;;;;-5.76;100.00;91170.94;5012362;28;20058;-70
2022/03/01 04:26:03;;;;;;;12.02;6.68;;;;;;;-5.86;100.00;91162.00;5012447;28;20480;-69
2022/03/01 04:28:29;;;;;;;10.90;7.20;;;;;;;-5.91;100.00;91173.03;5011524;28;20033;-69
2022/03/01 04:30:55;;;;;;;12.23;7.32;;;;;;;-6.13;100.00;91166.53;5011886;28;20486;-68
2022/03/01 04:33:26;;;;;;;18.38;9.20;;;;;;;-6.32;100.00;91157.78;5012269;28;20026;-69
2022/03/01 04:35:51;;;;;;;17.13;10.77;;;;;;;-6.43;100.00;91167.00;4994537;28;20042;-68
2022/03/01 04:38:17;;;;;;;10.32;7.03;;;;;;;-6.50;100.00;91161.00;5012205;28;20030;-69
2022/03/01 04:40:43;;;;;;;11.18;7.18;;;;;;;-6.47;100.00;91158.06;4994265;28;20124;-70
2022/03/01 04:43:09;;;;;;;15.20;7.47;;;;;;;-6.50;100.00;91176.53;5011503;28;20030;-70
2022/03/01 04:45:34;;;;;;;15.43;8.00;;;;;;;-6.58;100.00;91174.19;5011962;28;20037;-69
2022/03/01 04:48:00;;;;;;;13.77;7.60;;;;;;;-6.61;100.00;91172.00;5012090;28;20100;-70
2022/03/01 04:50:26;;;;;;;13.98;8.35;;;;;;;-6.55;100.00;91184.13;5011971;28;20033;-69
2022/03/01 04:52:52;;;;;;;14.30;9.23;;;;;;;-6.57;100.00;91172.38;5011987;28;20044;-70
2022/03/01 04:55:17;;;;;;;17.25;9.52;;;;;;;-6.57;100.00;91188.69;5011979;28;20116;-70
2022/03/01 04:57:44;;;;;;;21.60;12.38;;;;;;;-6.57;100.00;91182.72;5011799;28;20542;-69
2022/03/01 05:00:12;;;;;;;40.63;20.40;;;;;;;-6.51;100.00;91187.88;5011827;28;20021;-70
2022/03/01 05:02:44;;;;;;;20.48;12.07;;;;;;;-6.51;100.00;91179.34;5011956;28;20041;-70
2022/03/01 05:05:10;;;;;;;23.10;11.68;;;;;;;-6.62;100.00;91178.16;5012046;28;20037;-70
2022/03/01 05:07:38;;;;;;;16.58;9.77;;;;;;;-6.71;100.00;91181.94;5011788;28;20022;-70
2022/03/01 05:10:04;;;;;;;17.00;10.70;;;;;;;-6.66;100.00;91179.53;5011636;28;20030;-69
2022/03/01 05:12:29;;;;;;;18.77;10.65;;;;;;;-6.61;100.00;91187.50;5011571;28;20112;-69
2022/03/01 05:14:55;;;;;;;20.70;11.07;;;;;;;-6.62;100.00;91193.69;5011687;28;20117;-69
2022/03/01 05:17:20;;;;;;;20.48;10.82;;;;;;;-6.51;100.00;91198.25;5010849;28;20033;-70
2022/03/01 05:19:46;;;;;;;28.63;13.57;;;;;;;-6.32;100.00;91198.41;5011493;28;20034;-70
2022/03/01 05:22:11;;;;;;;39.95;18.40;;;;;;;-6.23;100.00;91189.44;5011888;28;20033;-70
2022/03/01 05:24:37;;;;;;;29.85;15.68;;;;;;;-6.22;100.00;91196.22;5011878;28;20037;-70
2022/03/01 05:27:02;;;;;;;35.72;19.02;;;;;;;-6.11;100.00;91205.97;5011482;28;20030;-70
2022/03/01 05:29:28;;;;;;;40.90;22.92;;;;;;;-6.14;100.00;91203.78;5011518;28;20112;-69
2022/03/01 05:31:53;;;;;;;26.20;14.05;;;;;;;-6.15;100.00;91202.19;5011283;28;20180;-70
2022/03/01 05:34:19;;;;;;;24.95;13.50;;;;;;;-6.08;100.00;91200.38;5011369;28;20018;-69
2022/03/01 05:36:44;;;;;;;23.88;12.70;;;;;;;-5.98;100.00;91194.78;5011526;28;20025;-70
2022/03/01 05:39:10;;;;;;;27.55;13.55;;;;;;;-5.81;100.00;91212.22;5011332;28;20101;-70
2022/03/01 05:41:35;;;;;;;31.50;17.35;;;;;;;-5.75;100.00;91211.41;5011281;28;20038;-70
2022/03/01 05:44:01;;;;;;;51.65;27.23;;;;;;;-5.69;100.00;91209.00;5011346;28;20026;-70
2022/03/01 05:46:26;;;;;;;69.70;35.17;;;;;;;-5.59;100.00;91201.59;5011346;28;20404;-69
2022/03/01 05:48:52;;;;;;;68.38;34.10;;;;;;;-5.54;100.00;91209.53;5011612;28;20026;-70
2022/03/01 05:51:18;;;;;;;92.35;43.30;;;;;;;-5.44;100.00;91204.72;5011522;28;20034;-70
2022/03/01 05:53:44;;;;;;;73.03;34.33;;;;;;;-5.69;100.00;91211.56;5011231;28;20032;-70
2022/03/01 05:56:09;;;;;;;104.10;44.75;;;;;;;-5.66;100.00;91211.97;4993560;28;20034;-70
2022/03/01 05:58:35;;;;;;;78.68;36.42;;;;;;;-5.52;100.00;91210.16;5011148;28;20025;-70
2022/03/01 06:01:00;;;;;;;70.13;30.90;;;;;;;-4.87;100.00;91216.78;5011147;28;20111;-69
2022/03/01 06:03:26;;;;;;;55.47;28.90;;;;;;;-4.29;100.00;91218.34;4993638;28;20133;-70
2022/03/01 06:05:51;;;;;;;60.47;30.02;;;;;;;-4.15;100.00;91219.03;5011145;28;20030;-69
2022/03/01 06:08:17;;;;;;;64.88;30.08;;;;;;;-3.14;100.00;91208.16;5011153;28;20108;-69
2022/03/01 06:10:42;;;;;;;66.28;29.27;;;;;;;-2.61;100.00;91220.44;5010936;28;20034;-69
2022/03/01 06:13:07;;;;;;;54.50;27.75;;;;;;;-2.21;100.00;91224.06;5011063;28;20030;-69
2022/03/01 06:15:33;;;;;;;88.35;37.15;;;;;;;-1.33;100.00;91227.53;4993310;28;20450;-69
2022/03/01 06:17:58;;;;;;;87.63;37.22;;;;;;;-0.37;100.00;91234.59;5011117;28;20076;-69
2022/03/01 06:20:24;;;;;;;70.28;30.05;;;;;;;1.23;89.94;91219.06;5010851;28;20041;-68
2022/03/01 06:22:49;;;;;;;70.53;33.05;;;;;;;2.65;78.23;91220.31;5011172;28;20026;-69
2022/03/01 06:25:15;;;;;;;119.43;47.97;;;;;;;3.48;72.13;91222.31;5011021;28;20097;-69
2022/03/01 06:27:41;;;;;;;94.75;41.70;;;;;;;3.86;67.95;91218.44;5010915;28;20026;-69
2022/03/01 06:30:07;;;;;;;48.80;29.02;;;;;;;4.18;65.05;91218.22;4992439;28;20070;-69
2022/03/01 06:32:33;;;;;;;72.97;41.58;;;;;;;4.66;63.53;91208.22;4993636;28;20034;-69
2022/03/01 06:34:59;;;;;;;48.17;29.15;;;;;;;4.50;63.58;91221.38;4994961;28;20034;-69
2022/03/01 06:37:24;;;;;;;35.80;20.83;;;;;;;4.46;63.71;91222.19;4994496;28;20031;-69
2022/03/01 06:39:50;;;;;;;27.17;16.63;;;;;;;4.97;62.23;91219.50;4994706;28;20113;-70
2022/03/01 06:42:17;;;;;;;24.42;15.85;;;;;;;5.21;61.42;91222.34;4994792;28;20026;-70
2022/03/01 06:44:42;;;;;;;33.03;18.40;;;;;;;4.06;62.57;91228.22;4994742;28;20058;-69
2022/03/01 06:47:09;;;;;;;32.50;18.13;;;;;;;3.89;64.77;91220.56;4994802;28;20520;-69
2022/03/01 06:49:34;;;;;;;34.00;20.13;;;;;;;4.44;62.73;91219.81;4994289;28;20121;-69
2022/03/01 06:52:00;;;;;;;40.05;21.35;;;;;;;4.20;63.00;91216.91;4994701;28;20150;-69
2022/03/01 06:54:26;;;;;;;37.78;21.83;;;;;;;4.91;61.80;91218.72;4993341;28;20073;-69
2022/03/01 06:56:52;;;;;;;41.55;24.40;;;;;;;5.18;61.25;91228.13;4994641;28;20045;-69
2022/03/01 06:59:17;;;;;;;23.35;13.43;;;;;;;5.28;59.99;91226.25;4994364;28;20034;-69
2022/03/01 07:01:43;;;;;;;15.07;9.68;;;;;;;3.82;63.19;91231.34;4994204;28;20041;-69
2022/03/01 07:04:08;;;;;;;21.52;11.40;;;;;;;2.68;67.48;91226.91;4994232;28;20109;-69
2022/03/01 07:06:34;;;;;;;30.33;15.75;;;;;;;1.89;71.28;91222.34;4994349;28;20034;-70
2022/03/01 07:08:59;;;;;;;35.75;18.42;;;;;;;0.72;76.95;91218.47;4994216;28;20400;-69
2022/03/01 07:11:25;;;;;;;34.58;18.45;;;;;;;-0.92;86.18;91231.75;4994173;28;20026;-69
2022/03/01 07:13:50;;;;;;;34.30;21.35;;;;;;;-1.60;97.06;91214.19;4990626;28;20402;-68
2022/03/01 07:16:16;;;;;;;43.47;25.67;;;;;;;-2.38;100.00;91217.88;4992319;28;20113;-69
2022/03/01 07:18:43;;;;;;;251.00;102.15;;;;;;;-2.47;100.00;91203.59;5013487;28;20030;-66
2022/03/01 07:21:09;;;;;;;86.82;41.08;;;;;;;-2.19;100.00;91229.03;5013009;28;20458;-71
2022/03/01 07:23:35;;;;;;;96.45;45.47;;;;;;;-2.04;100.00;91231.22;5013423;28;20061;-70
2022/03/01 07:26:01;;;;;;;233.55;118.78;;;;;;;-1.82;100.00;91235.63;5013601;28;20108;-72
2022/03/01 07:28:27;;;;;;;76.10;45.33;;;;;;;-1.70;100.00;91238.25;5013384;28;20034;-72
2022/03/01 07:30:54;;;;;;;89.10;50.35;;;;;;;-1.91;100.00;91236.19;5023071;28;20073;-71
2022/03/01 07:33:19;;;;;;;138.02;72.78;;;;;;;-1.86;100.00;91242.31;5032680;28;20029;-72
2022/03/01 07:35:45;;;;;;;274.77;144.20;;;;;;;-2.05;100.00;91237.41;5032617;28;20044;-72
2022/03/01 07:38:11;;;;;;;199.18;112.68;;;;;;;-2.24;100.00;91237.50;5032798;28;20026;-72
2022/03/01 07:40:37;;;;;;;101.72;56.40;;;;;;;-1.81;100.00;91236.41;5031877;28;20075;-72
2022/03/01 07:43:02;;;;;;;40.35;23.98;;;;;;;-1.77;100.00;91242.75;5032675;28;20025;-72
2022/03/01 07:45:28;;;;;;;39.95;21.75;;;;;;;-1.78;100.00;91233.34;5032784;28;20056;-71
2022/03/01 07:47:54;;;;;;;53.65;26.15;;;;;;;-1.88;100.00;91238.34;5032851;28;20057;-72
2022/03/01 07:50:20;;;;;;;50.47;28.65;;;;;;;-1.60;100.00;91241.06;5014828;28;20029;-72
2022/03/01 07:52:47;;;;;;;23.00;15.02;;;;;;;-1.55;100.00;91235.97;5032637;28;20037;-72
2022/03/01 07:55:12;;;;;;;29.63;17.40;;;;;;;-1.81;100.00;91221.56;5032284;28;20026;-72
2022/03/01 07:57:38;;;;;;;48.05;25.88;;;;;;;-2.05;100.00;91229.59;5014504;28;20433;-72
2022/03/01 08:00:05;;;;;;;39.15;21.63;;;;;;;-2.25;100.00;91225.50;5032481;28;20408;-71
2022/03/01 08:02:30;;;;;;;42.25;23.35;;;;;;;-1.91;100.00;91223.13;5032270;28;20029;-71
2022/03/01 08:04:56;;;;;;;38.92;23.30;;;;;;;-1.74;100.00;91226.66;5032295;28;20483;-72
2022/03/01 08:07:22;;;;;;;44.33;26.75;;;;;;;-1.27;100.00;91230.00;5032346;28;20032;-73
2022/03/01 08:09:48;;;;;;;50.28;26.35;;;;;;;-0.74;100.00;91231.59;5032164;28;20033;-72
2022/03/01 08:12:13;;;;;;;65.80;35.65;;;;;;;-0.18;100.00;91231.75;5032167;28;20021;-72
2022/03/01 08:14:39;;;;;;;115.13;48.05;;;;;;;-0.25;100.00;91226.69;5032165;28;20037;-71
2022/03/01 08:17:04;;;;;;;47.45;28.35;;;;;;;-0.46;100.00;91228.16;5032130;28;20049;-71
2022/03/01 08:19:30;;;;;;;41.40;26.13;;;;;;;-0.15;100.00;91228.69;5032013;28;20719;-71
2022/03/01 08:21:55;;;;;;;15.65;9.85;;;;;;;0.29;96.02;91233.03;5032083;28;20024;-71
2022/03/01 08:24:21;;;;;;;22.48;13.20;;;;;;;0.05;93.26;91241.28;5031975;28;20086;-71
2022/03/01 08:26:48;;;;;;;12.70;8.55;;;;;;;0.17;91.09;91234.97;5031969;28;20041;-72
2022/03/01 08:29:13;;;;;;;8.75;5.45;;;;;;;-0.02;85.95;91244.03;5031515;28;20072;-68
2022/03/01 08:31:41;;;;;;;9.40;6.82;;;;;;;-0.18;88.01;91236.97;5031622;28;20089;-69
2022/03/01 08:34:09;;;;;;;9.15;5.20;;;;;;;0.27;85.36;91247.38;5014148;28;20033;-69
2022/03/01 08:36:35;;;;;;;4.85;3.80;;;;;;;-0.22;83.44;91252.34;5031852;28;20033;-69
2022/03/01 08:39:01;;;;;;;7.72;4.35;;;;;;;-0.46;85.98;91249.06;4997288;28;20030;-69
2022/03/01 08:41:26;;;;;;;13.25;7.85;;;;;;;0.10;89.04;91257.06;4991682;28;20523;-68
2022/03/01 08:43:52;;;;;;;8.52;5.57;;;;;;;0.27;86.32;91257.84;4992070;28;20022;-67
2022/03/01 08:46:18;;;;;;;9.40;5.68;;;;;;;0.83;83.47;91245.56;4992158;28;20030;-68
2022/03/01 08:48:44;;;;;;;11.93;7.80;;;;;;;0.76;82.70;91250.19;4992249;28;20432;-68
2022/03/01 08:51:11;;;;;;;8.25;5.30;;;;;;;0.85;82.46;91254.78;4991829;28;20489;-68
2022/03/01 08:53:37;;;;;;;4.28;3.60;;;;;;;0.68;82.77;91259.25;4992140;28;20041;-68
2022/03/01 08:56:03;;;;;;;8.90;6.63;;;;;;;0.20;85.29;91258.03;4992136;28;20040;-69
2022/03/01 08:58:29;;;;;;;10.18;6.82;;;;;;;0.40;89.56;91248.88;4991888;28;20030;-70
2022/03/01 09:00:54;;;;;;;11.13;6.30;;;;;;;0.64;86.16;91254.75;4991864;28;20036;-68
2022/03/01 09:03:20;;;;;;;6.95;4.70;;;;;;;1.32;82.95;91259.53;4991904;28;20038;-69
2022/03/01 09:05:45;;;;;;;9.00;5.72;;;;;;;1.61;82.40;91264.59;4974604;28;20118;-70
2022/03/01 09:08:13;;;;;;;6.97;4.80;;;;;;;1.58;76.96;91263.25;4992047;28;20030;-69
2022/03/01 09:10:42;;;;;;;8.60;5.85;;;;;;;1.56;76.79;91254.03;4992081;28;20026;-68
2022/03/01 09:13:07;;;;;;;11.35;6.70;;;;;;;1.30;77.24;91255.59;4991792;28;20038;-69
2022/03/01 09:15:33;;;;;;;9.02;5.85;;;;;;;2.07;79.67;91248.25;4991811;28;20030;-68
2022/03/01 09:18:05;;;;;;;13.55;9.27;;;;;;;2.36;75.49;91253.19;4991609;28;20065;-69
2022/03/01 09:20:30;;;;;;;13.13;8.00;;;;;;;2.61;77.73;91250.78;4991587;28;20082;-68
2022/03/01 09:22:57;;;;;;;6.75;5.38;;;;;;;2.92;72.83;91256.22;4991620;28;20034;-68
2022/03/01 09:25:23;;;;;;;7.95;5.50;;;;;;;3.95;69.77;91263.50;4991421;28;20019;-68
2022/03/01 09:27:49;;;;;;;11.48;6.65;;;;;;;4.55;68.72;91261.97;4987953;28;20081;-67
2022/03/01 09:30:16;;;;;;;26.75;17.33;;;;;;;4.29;67.60;91261.16;4991170;28;20081;-67
2022/03/01 09:32:42;;;;;;;17.90;12.35;;;;;;;2.45;72.06;91256.16;4991423;28;20089;-68
2022/03/01 09:35:09;;;;;;;23.17;13.73;;;;;;;2.07;74.98;91258.75;4973713;28;20385;-68
2022/03/01 09:37:34;;;;;;;25.10;16.30;;;;;;;1.81;77.99;91256.94;4990789;28;20026;-67
2022/03/01 09:40:01;;;;;;;20.02;13.10;;;;;;;2.00;79.20;91250.28;4991220;28;20041;-68
2022/03/01 09:42:27;;;;;;;12.52;8.15;;;;;;;2.16;79.42;91255.66;4991155;28;20027;-68
2022/03/01 09:44:54;;;;;;;13.38;9.65;;;;;;;1.27;80.97;91250.84;4991159;28;20113;-67
2022/03/01 09:47:20;;;;;;;11.45;7.38;;;;;;;1.34;83.24;91256.69;4991142;28;20030;-67
2022/03/01 09:49:46;;;;;;;23.65;13.25;;;;;;;1.84;85.42;91259.03;4991146;28;20084;-67
2022/03/01 09:52:13;;;;;;;20.67;13.02;;;;;;;1.65;83.29;91258.59;4990802;28;20113;-67
2022/03/01 09:54:38;;;;;;;17.52;10.70;;;;;;;1.77;83.79;91253.22;4991128;28;20500;-68
2022/03/01 09:57:04;;;;;;;11.70;7.82;;;;;;;1.65;80.40;91257.81;4991062;28;20126;-67
2022/03/01 09:59:29;;;;;;;23.00;13.50;;;;;;;2.08;81.72;91256.91;4990957;28;20058;-67
2022/03/01 10:01:55;;;;;;;18.77;11.02;;;;;;;2.61;77.30;91255.22;4991088;28;20019;-67
2022/03/01 10:04:21;;;;;;;26.27;13.82;;;;;;;2.74;75.70;91239.03;4992569;28;20507;-68
2022/03/01 10:06:48;;;;;;;13.23;9.43;;;;;;;3.39;73.19;91248.31;4994699;28;20039;-67
2022/03/01 10:09:20;;;;;;;13.73;7.72;;;;;;;2.77;73.52;91237.72;4994821;28;20487;-68
2022/03/01 10:11:47;;;;;;;10.68;5.75;;;;;;;3.14;69.97;91243.72;4994852;28;20033;-67
2022/03/01 10:14:13;;;;;;;10.63;6.32;;;;;;;3.48;67.88;91240.72;4994908;28;20034;-67
2022/03/01 10:16:45;;;;;;;22.35;12.55;;;;;;;6.46;62.18;91242.31;4994732;28;20492;-66
2022/03/01 10:19:20;;;;;;;12.05;8.65;;;;;;;8.04;52.70;91239.63;4994431;28;20057;-68
2022/03/01 10:21:47;;;;;;;4.15;3.40;;;;;;;4.78;55.38;91232.44;4994308;28;20038;-69
2022/03/01 10:24:15;;;;;;;5.68;4.82;;;;;;;3.65;61.45;91243.94;4994662;28;20035;-68
2022/03/01 10:26:43;;;;;;;9.10;5.60;;;;;;;3.64;63.33;91244.97;4994567;28;20026;-68
2022/03/01 10:29:09;;;;;;;7.43;4.90;;;;;;;3.00;65.53;91237.34;4994554;28;20259;-68
2022/03/01 10:31:34;;;;;;;6.85;4.80;;;;;;;2.64;66.14;91229.25;4994475;28;20078;-68
2022/03/01 10:34:10;;;;;;;8.60;4.68;;;;;;;2.60;66.55;91230.00;4994602;28;20034;-68
2022/03/01 10:36:41;;;;;;;7.43;5.53;;;;;;;2.05;70.39;91234.59;4994171;28;20035;-68
2022/03/01 10:39:09;;;;;;;4.32;3.63;;;;;;;1.26;70.28;91233.50;4994470;28;20041;-68
2022/03/01 10:41:37;;;;;;;7.53;4.55;;;;;;;1.11;73.17;91213.19;4994300;28;20035;-68
2022/03/01 10:44:04;;;;;;;7.35;4.93;;;;;;;2.08;74.88;91228.84;4994218;28;20042;-68
2022/03/01 10:46:37;;;;;;;7.78;5.13;;;;;;;2.10;71.53;91231.22;4994374;28;20460;-68
2022/03/01 10:49:11;;;;;;;6.35;4.35;;;;;;;2.34;68.12;91221.16;4994071;28;20102;-68
2022/03/01 10:52:03;;;;;;;5.97;4.20;;;;;;;2.35;70.50;91220.91;4993867;28;20046;-67
2022/03/01 10:54:44;;;;;;;6.72;4.55;;;;;;;1.96;69.04;91217.72;4994047;28;20031;-68
2022/03/01 10:57:23;;;;;;;9.80;6.28;;;;;;;2.77;70.25;91208.84;4993963;28;20038;-68
2022/03/01 10:59:49;;;;;;;5.20;3.70;;;;;;;2.29;67.75;91210.63;4994011;28;20081;-68
2022/03/01 11:02:17;;;;;;;4.15;2.75;;;;;;;2.89;65.09;91210.22;4993989;28;20042;-68
2022/03/01 11:04:44;;;;;;;5.40;3.75;;;;;;;2.44;66.12;91208.13;4976168;28;20056;-67
2022/03/01 11:07:11;;;;;;;5.72;3.83;;;;;;;1.80;67.80;91195.81;4993287;28;20117;-67
2022/03/01 11:09:37;;;;;;;12.50;6.18;;;;;;;3.14;67.87;91206.13;4993757;28;20642;-68
2022/03/01 11:12:06;;;;;;;12.88;5.82;;;;;;;3.80;63.28;91198.47;4993775;28;20109;-68
2022/03/01 11:15:01;;;;;;;8.80;4.95;;;;;;;4.29;62.49;91185.59;4993736;28;20046;-68